createdAt,value
2019-06-20T00:00:54.635Z,19.87
2019-06-20T00:01:54.619Z,19.57
2019-06-20T00:02:54.607Z,19.20
2019-06-20T00:03:54.586Z,18.83
2019-06-20T00:04:54.570Z,18.65
2019-06-20T00:05:54.588Z,18.39
2019-06-20T00:06:54.549Z,18.33
2019-06-20T00:07:54.534Z,18.18
2019-06-20T00:08:54.514Z,18.03
2019-06-20T00:09:54.503Z,17.82
2019-06-20T00:10:54.485Z,17.91
2019-06-20T00:11:54.472Z,17.67
2019-06-20T00:13:00.565Z,17.55
2019-06-20T00:13:54.449Z,17.54
2019-06-20T00:14:54.425Z,17.54
2019-06-20T00:15:54.440Z,17.41
2019-06-20T00:16:54.398Z,17.30
2019-06-20T00:17:54.995Z,17.20
2019-06-20T00:18:54.373Z,17.08
2019-06-20T00:19:54.351Z,16.98
2019-06-20T00:20:54.329Z,16.85
2019-06-20T00:21:54.313Z,16.80
2019-06-20T00:22:54.306Z,16.71
2019-06-20T00:23:54.286Z,16.68
2019-06-20T00:24:54.267Z,16.65
2019-06-20T00:25:54.252Z,16.65
2019-06-20T00:26:54.246Z,16.71
2019-06-20T00:27:54.218Z,16.62
2019-06-20T00:28:54.221Z,16.71
2019-06-20T00:29:54.202Z,16.67
2019-06-20T00:30:54.180Z,16.67
2019-06-20T00:31:54.204Z,16.70
2019-06-20T00:32:54.144Z,16.68
2019-06-20T00:33:54.131Z,16.68
2019-06-20T00:34:54.111Z,16.68
2019-06-20T00:35:54.090Z,16.75
2019-06-20T00:36:54.077Z,16.75
2019-06-20T00:37:54.064Z,16.71
2019-06-20T00:38:54.048Z,16.78
2019-06-20T00:39:54.027Z,16.71
2019-06-20T00:40:54.014Z,16.75
2019-06-20T00:41:54.016Z,16.77
2019-06-20T00:42:53.982Z,16.88
2019-06-20T00:43:53.960Z,16.85
2019-06-20T00:44:53.945Z,16.85
2019-06-20T00:45:53.934Z,16.90
2019-06-20T00:46:53.919Z,16.90
2019-06-20T00:47:53.896Z,16.89
2019-06-20T00:48:53.886Z,16.83
2019-06-20T00:49:53.862Z,16.89
2019-06-20T00:50:53.845Z,16.95
2019-06-20T00:51:53.829Z,17.00
2019-06-20T00:52:53.819Z,16.96
2019-06-20T00:53:53.805Z,17.07
2019-06-20T00:54:53.788Z,17.00
2019-06-20T00:55:53.773Z,17.07
2019-06-20T00:56:53.748Z,17.15
2019-06-20T00:57:53.730Z,17.15
2019-06-20T00:58:53.714Z,17.17
2019-06-20T00:59:53.704Z,17.07
2019-06-20T01:00:53.688Z,17.06
2019-06-20T01:01:53.666Z,17.04
2019-06-20T01:02:53.653Z,17.04
2019-06-20T01:03:53.631Z,16.96
2019-06-20T01:04:53.616Z,16.96
2019-06-20T01:05:53.605Z,16.92
2019-06-20T01:06:53.596Z,17.07
2019-06-20T01:07:53.653Z,17.03
2019-06-20T01:08:53.563Z,17.15
2019-06-20T01:09:53.537Z,17.08
2019-06-20T01:10:53.526Z,17.17
2019-06-20T01:11:53.505Z,17.18
2019-06-20T01:12:53.490Z,17.17
2019-06-20T01:13:53.476Z,17.15
2019-06-20T01:14:53.569Z,17.11
2019-06-20T01:15:53.482Z,17.08
2019-06-20T01:16:53.425Z,17.04
2019-06-20T01:17:53.413Z,17.00
2019-06-20T01:18:53.585Z,17.03
2019-06-20T01:19:53.370Z,17.10
2019-06-20T01:20:53.359Z,17.06
2019-06-20T01:21:53.338Z,17.10
2019-06-20T01:22:53.330Z,16.99
2019-06-20T01:23:53.306Z,17.06
2019-06-20T01:24:53.291Z,17.06
2019-06-20T01:25:53.273Z,17.13
2019-06-20T01:26:53.255Z,17.06
2019-06-20T01:27:53.240Z,17.06
2019-06-20T01:28:53.241Z,17.00
2019-06-20T01:29:53.219Z,17.00
2019-06-20T01:30:53.192Z,17.08
2019-06-20T01:31:53.176Z,17.04
2019-06-20T01:32:53.162Z,17.08
2019-06-20T01:33:53.144Z,17.03
2019-06-20T01:34:53.140Z,17.07
2019-06-20T01:35:53.112Z,17.04
2019-06-20T01:36:53.093Z,17.10
2019-06-20T01:37:53.086Z,17.07
2019-06-20T01:38:53.065Z,17.10
2019-06-20T01:39:53.042Z,16.99
2019-06-20T01:40:53.031Z,17.07
2019-06-20T01:41:53.029Z,17.00
2019-06-20T01:42:52.997Z,17.03
2019-06-20T01:43:52.978Z,16.95
2019-06-20T01:44:52.965Z,16.89
2019-06-20T01:45:52.945Z,16.98
2019-06-20T01:46:52.928Z,16.88
2019-06-20T01:47:52.912Z,16.85
2019-06-20T01:48:52.905Z,16.88
2019-06-20T01:49:52.886Z,16.90
2019-06-20T01:50:52.865Z,16.90
2019-06-20T01:51:52.865Z,16.86
2019-06-20T01:52:52.828Z,16.90
2019-06-20T01:53:52.825Z,16.96
2019-06-20T01:54:52.808Z,16.95
2019-06-20T01:55:52.787Z,17.03
2019-06-20T01:56:52.767Z,16.98
2019-06-20T01:57:52.754Z,17.06
2019-06-20T01:58:52.736Z,17.11
2019-06-20T01:59:52.713Z,17.13
2019-06-20T02:00:52.713Z,17.04
2019-06-20T02:01:52.719Z,16.98
2019-06-20T02:02:52.667Z,17.03
2019-06-20T02:03:52.657Z,16.99
2019-06-20T02:04:52.642Z,17.04
2019-06-20T02:05:52.619Z,17.06
2019-06-20T02:06:52.608Z,17.07
2019-06-20T02:07:52.582Z,16.99
2019-06-20T02:08:52.565Z,16.99
2019-06-20T02:09:52.550Z,17.06
2019-06-20T02:10:52.534Z,16.96
2019-06-20T02:11:52.511Z,16.95
2019-06-20T02:12:53.043Z,17.00
2019-06-20T02:14:06.356Z,17.00
2019-06-20T02:14:52.466Z,17.03
2019-06-20T02:15:52.458Z,17.07
2019-06-20T02:16:52.441Z,17.07
2019-06-20T02:17:52.487Z,17.07
2019-06-20T02:18:52.409Z,17.03
2019-06-20T02:19:52.391Z,17.04
2019-06-20T02:20:52.377Z,16.98
2019-06-20T02:21:52.382Z,16.88
2019-06-20T02:22:52.341Z,16.85
2019-06-20T02:23:52.316Z,16.83
2019-06-20T02:24:52.305Z,16.89
2019-06-20T02:25:52.291Z,16.80
2019-06-20T02:26:52.290Z,16.77
2019-06-20T02:27:52.259Z,16.80
2019-06-20T02:28:52.235Z,16.77
2019-06-20T02:29:52.222Z,16.86
2019-06-20T02:30:52.209Z,16.74
2019-06-20T02:31:52.185Z,16.78
2019-06-20T02:32:52.173Z,16.78
2019-06-20T02:33:52.158Z,16.80
2019-06-20T02:34:52.136Z,16.74
2019-06-20T02:35:52.121Z,16.74
2019-06-20T02:36:52.114Z,16.78
2019-06-20T02:37:52.087Z,16.74
2019-06-20T02:38:52.088Z,16.80
2019-06-20T02:39:52.057Z,16.73
2019-06-20T02:40:52.034Z,16.74
2019-06-20T02:41:52.024Z,16.73
2019-06-20T02:42:52.003Z,16.68
2019-06-20T02:43:51.991Z,16.67
2019-06-20T02:44:51.975Z,16.68
2019-06-20T02:45:51.956Z,16.67
2019-06-20T02:46:51.935Z,16.58
2019-06-20T02:47:51.918Z,16.65
2019-06-20T02:48:51.906Z,16.65
2019-06-20T02:49:51.883Z,16.62
2019-06-20T02:50:51.874Z,16.70
2019-06-20T02:51:51.860Z,16.71
2019-06-20T02:52:51.843Z,16.73
2019-06-20T02:53:51.818Z,16.71
2019-06-20T02:54:51.804Z,16.78
2019-06-20T02:55:51.782Z,16.78
2019-06-20T02:56:51.779Z,16.68
2019-06-20T02:57:51.750Z,16.78
2019-06-20T02:58:51.741Z,16.83
2019-06-20T02:59:51.715Z,16.85
2019-06-20T03:00:51.721Z,16.86
2019-06-20T03:01:51.683Z,16.88
2019-06-20T03:02:51.673Z,16.83
2019-06-20T03:03:51.649Z,16.80
2019-06-20T03:04:51.633Z,16.85
2019-06-20T03:05:51.623Z,16.81
2019-06-20T03:06:51.631Z,16.85
2019-06-20T03:07:51.583Z,16.90
2019-06-20T03:08:51.566Z,16.93
2019-06-20T03:09:51.556Z,16.99
2019-06-20T03:10:51.540Z,17.06
2019-06-20T03:11:51.528Z,17.03
2019-06-20T03:12:51.498Z,17.04
2019-06-20T03:13:51.482Z,17.13
2019-06-20T03:14:51.473Z,17.07
2019-06-20T03:15:51.451Z,17.00
2019-06-20T03:16:51.437Z,16.98
2019-06-20T03:17:51.418Z,17.03
2019-06-20T03:18:51.415Z,17.03
2019-06-20T03:19:51.381Z,16.96
2019-06-20T03:20:51.370Z,17.04
2019-06-20T03:21:51.355Z,17.03
2019-06-20T03:22:51.340Z,17.03
2019-06-20T03:23:51.319Z,17.08
2019-06-20T03:24:51.328Z,17.03
2019-06-20T03:25:51.284Z,17.06
2019-06-20T03:26:51.265Z,17.04
2019-06-20T03:27:51.255Z,17.08
2019-06-20T03:28:51.233Z,16.99
2019-06-20T03:29:51.221Z,16.98
2019-06-20T03:30:51.205Z,17.03
2019-06-20T03:31:51.190Z,16.98
2019-06-20T03:32:51.172Z,16.92
2019-06-20T03:33:51.155Z,16.99
2019-06-20T03:34:51.141Z,16.98
2019-06-20T03:35:51.119Z,17.00
2019-06-20T03:36:51.106Z,17.06
2019-06-20T03:37:51.090Z,16.99
2019-06-20T03:38:51.067Z,17.06
2019-06-20T03:39:51.048Z,17.10
2019-06-20T03:40:51.042Z,17.08
2019-06-20T03:41:51.017Z,17.13
2019-06-20T03:42:51.003Z,17.08
2019-06-20T03:43:50.996Z,16.99
2019-06-20T03:45:01.597Z,17.06
2019-06-20T03:45:50.975Z,17.08
2019-06-20T03:46:50.935Z,17.03
2019-06-20T03:47:50.917Z,17.04
2019-06-20T03:48:51.001Z,17.06
2019-06-20T03:49:50.886Z,17.03
2019-06-20T03:50:50.870Z,16.99
2019-06-20T03:51:51.728Z,17.00
2019-06-20T03:52:50.842Z,17.08
2019-06-20T03:53:50.826Z,17.04
2019-06-20T03:54:50.810Z,17.10
2019-06-20T03:55:50.791Z,17.13
2019-06-20T03:56:50.768Z,17.18
2019-06-20T03:57:50.762Z,17.17
2019-06-20T03:58:50.737Z,17.15
2019-06-20T03:59:50.722Z,17.18
2019-06-20T04:00:50.712Z,17.22
2019-06-20T04:01:50.695Z,17.13
2019-06-20T04:02:50.673Z,17.15
2019-06-20T04:03:50.657Z,17.17
2019-06-20T04:04:50.642Z,17.13
2019-06-20T04:05:50.624Z,17.15
2019-06-20T04:06:50.614Z,17.15
2019-06-20T04:07:50.590Z,17.17
2019-06-20T04:08:50.573Z,17.15
2019-06-20T04:09:50.557Z,17.22
2019-06-20T04:10:50.549Z,17.18
2019-06-20T04:11:50.530Z,17.29
2019-06-20T04:12:50.512Z,17.28
2019-06-20T04:13:50.496Z,17.29
2019-06-20T04:14:50.482Z,17.36
2019-06-20T04:15:50.465Z,17.41
2019-06-20T04:16:50.448Z,17.32
2019-06-20T04:17:50.433Z,17.43
2019-06-20T04:18:50.411Z,17.48
2019-06-20T04:19:50.401Z,17.44
2019-06-20T04:20:50.379Z,17.44
2019-06-20T04:21:50.369Z,17.53
2019-06-20T04:22:50.353Z,17.53
2019-06-20T04:23:50.331Z,17.63
2019-06-20T04:24:50.321Z,17.69
2019-06-20T04:25:50.305Z,17.63
2019-06-20T04:26:50.293Z,17.69
2019-06-20T04:27:50.267Z,17.66
2019-06-20T04:28:50.257Z,17.53
2019-06-20T04:29:50.248Z,17.67
2019-06-20T04:30:50.221Z,17.62
2019-06-20T04:31:50.208Z,17.66
2019-06-20T04:32:50.195Z,17.63
2019-06-20T04:33:50.185Z,17.79
2019-06-20T04:34:50.164Z,17.79
2019-06-20T04:35:50.142Z,17.73
2019-06-20T04:36:51.084Z,17.78
2019-06-20T04:37:50.116Z,17.69
2019-06-20T04:38:50.103Z,17.67
2019-06-20T04:39:50.081Z,17.74
2019-06-20T04:40:50.059Z,17.67
2019-06-20T04:41:50.052Z,17.69
2019-06-20T04:42:50.044Z,17.67
2019-06-20T04:43:50.016Z,17.66
2019-06-20T04:44:50.000Z,17.73
2019-06-20T04:45:49.984Z,17.84
2019-06-20T04:46:49.972Z,17.81
2019-06-20T04:47:49.952Z,17.88
2019-06-20T04:48:49.942Z,17.84
2019-06-20T04:49:49.927Z,18.00
2019-06-20T04:50:49.914Z,17.99
2019-06-20T04:51:49.894Z,17.94
2019-06-20T04:52:49.876Z,17.89
2019-06-20T04:53:49.866Z,17.92
2019-06-20T04:54:49.843Z,17.94
2019-06-20T04:55:49.840Z,17.89
2019-06-20T04:56:49.814Z,17.94
2019-06-20T04:57:49.805Z,17.97
2019-06-20T04:58:49.782Z,17.92
2019-06-20T04:59:49.766Z,17.92
2019-06-20T05:00:49.750Z,17.99
2019-06-20T05:01:49.735Z,18.00
2019-06-20T05:02:49.722Z,17.88
2019-06-20T05:03:49.706Z,17.85
2019-06-20T05:04:49.704Z,17.97
2019-06-20T05:05:49.680Z,17.99
2019-06-20T05:06:49.673Z,17.95
2019-06-20T05:07:49.674Z,18.03
2019-06-20T05:08:49.630Z,17.87
2019-06-20T05:09:49.620Z,18.02
2019-06-20T05:10:49.603Z,17.94
2019-06-20T05:11:49.588Z,17.95
2019-06-20T05:12:49.572Z,17.95
2019-06-20T05:13:49.552Z,17.95
2019-06-20T05:14:49.536Z,18.04
2019-06-20T05:15:52.915Z,18.15
2019-06-20T05:16:49.510Z,18.24
2019-06-20T05:17:49.514Z,18.31
2019-06-20T05:18:49.475Z,18.31
2019-06-20T05:19:49.462Z,18.44
2019-06-20T05:20:49.451Z,18.57
2019-06-20T05:21:49.431Z,18.61
2019-06-20T05:22:49.413Z,18.62
2019-06-20T05:23:49.401Z,18.76
2019-06-20T05:24:49.411Z,18.70
2019-06-20T05:25:49.378Z,18.72
2019-06-20T05:26:49.362Z,18.65
2019-06-20T05:27:49.344Z,18.67
2019-06-20T05:28:49.329Z,18.68
2019-06-20T05:29:49.313Z,18.65
2019-06-20T05:30:49.295Z,18.61
2019-06-20T05:31:49.278Z,18.54
2019-06-20T05:32:49.265Z,18.59
2019-06-20T05:33:49.250Z,18.55
2019-06-20T05:34:49.277Z,18.57
2019-06-20T05:35:49.224Z,18.52
2019-06-20T05:36:49.206Z,18.55
2019-06-20T05:37:49.193Z,18.55
2019-06-20T05:38:49.184Z,18.64
2019-06-20T05:39:49.173Z,18.72
2019-06-20T05:40:49.177Z,18.79
2019-06-20T05:41:49.130Z,18.80
2019-06-20T05:42:49.116Z,18.83
2019-06-20T05:43:49.098Z,18.87
2019-06-20T05:44:49.091Z,18.99
2019-06-20T05:45:49.120Z,18.99
2019-06-20T05:46:49.056Z,19.08
2019-06-20T05:47:49.874Z,19.23
2019-06-20T05:48:49.025Z,19.24
2019-06-20T05:49:49.012Z,19.29
2019-06-20T05:50:48.996Z,19.36
2019-06-20T05:51:48.986Z,19.53
2019-06-20T05:52:48.973Z,19.57
2019-06-20T05:53:48.978Z,19.68
2019-06-20T05:54:48.940Z,19.73
2019-06-20T05:55:48.929Z,19.87
2019-06-20T05:56:48.913Z,20.02
2019-06-20T05:57:48.896Z,20.02
2019-06-20T05:58:48.880Z,20.03
2019-06-20T05:59:48.867Z,20.15
2019-06-20T06:00:48.858Z,20.24
2019-06-20T06:01:48.842Z,20.25
2019-06-20T06:02:48.832Z,20.30
2019-06-20T06:03:48.812Z,20.43
2019-06-20T06:04:48.801Z,20.53
2019-06-20T06:05:48.800Z,20.56
2019-06-20T06:06:48.771Z,20.39
2019-06-20T06:07:48.760Z,20.46
2019-06-20T06:08:48.755Z,20.51
2019-06-20T06:09:48.730Z,20.61
2019-06-20T06:10:48.729Z,20.62
2019-06-20T06:11:48.714Z,20.74
2019-06-20T06:12:48.692Z,20.99
2019-06-20T06:13:48.688Z,20.93
2019-06-20T06:14:49.113Z,20.99
2019-06-20T06:15:48.658Z,21.02
2019-06-20T06:16:48.646Z,20.95
2019-06-20T06:17:48.637Z,20.89
2019-06-20T06:18:48.613Z,21.05
2019-06-20T06:19:48.611Z,20.98
2019-06-20T06:20:48.604Z,20.98
2019-06-20T06:21:48.576Z,20.98
2019-06-20T06:22:48.581Z,21.13
2019-06-20T06:23:48.557Z,21.20
2019-06-20T06:24:48.537Z,21.30
2019-06-20T06:25:48.524Z,21.45
2019-06-20T06:26:48.513Z,21.67
2019-06-20T06:27:48.504Z,21.78
2019-06-20T06:28:48.661Z,21.64
2019-06-20T06:29:48.480Z,21.46
2019-06-20T06:30:48.460Z,21.59
2019-06-20T06:31:48.447Z,21.41
2019-06-20T06:32:48.450Z,21.50
2019-06-20T06:33:48.423Z,21.53
2019-06-20T06:34:48.499Z,21.57
2019-06-20T06:35:48.433Z,21.79
2019-06-20T06:36:48.384Z,21.92
2019-06-20T06:37:48.386Z,22.06
2019-06-20T06:38:48.366Z,21.98
2019-06-20T06:39:48.355Z,21.85
2019-06-20T06:40:48.339Z,22.09
2019-06-20T06:41:48.326Z,22.04
2019-06-20T06:42:48.333Z,22.09
2019-06-20T06:43:48.308Z,22.09
2019-06-20T06:44:48.292Z,22.07
2019-06-20T06:45:48.285Z,22.10
2019-06-20T06:46:54.167Z,22.10
2019-06-20T06:47:48.255Z,22.22
2019-06-20T06:48:48.241Z,22.14
2019-06-20T06:49:48.233Z,22.37
2019-06-20T06:50:48.256Z,22.47
2019-06-20T06:51:48.207Z,22.49
2019-06-20T06:52:48.195Z,22.49
2019-06-20T06:53:48.188Z,22.19
2019-06-20T06:54:48.168Z,22.19
2019-06-20T06:55:48.168Z,22.35
2019-06-20T06:56:48.152Z,22.27
2019-06-20T06:57:48.147Z,22.34
2019-06-20T06:58:48.138Z,22.47
2019-06-20T06:59:48.120Z,22.56
2019-06-20T07:00:48.099Z,22.65
2019-06-20T07:01:48.086Z,22.57
2019-06-20T07:02:48.084Z,22.64
2019-06-20T07:03:48.071Z,22.57
2019-06-20T07:04:48.061Z,22.60
2019-06-20T07:05:48.048Z,22.75
2019-06-20T07:06:48.032Z,22.89
2019-06-20T07:07:48.038Z,23.01
2019-06-20T07:08:48.013Z,22.92
2019-06-20T07:09:48.010Z,22.99
2019-06-20T07:10:47.986Z,23.01
2019-06-20T07:11:47.975Z,23.09
2019-06-20T07:12:48.030Z,22.86
2019-06-20T07:13:47.953Z,22.97
2019-06-20T07:14:47.943Z,22.87
2019-06-20T07:15:47.931Z,22.57
2019-06-20T07:16:59.704Z,22.54
2019-06-20T07:17:47.931Z,22.44
2019-06-20T07:18:47.896Z,22.31
2019-06-20T07:19:47.890Z,22.31
2019-06-20T07:20:47.873Z,22.50
2019-06-20T07:21:47.870Z,22.67
2019-06-20T07:22:47.860Z,22.83
2019-06-20T07:23:47.853Z,23.02
2019-06-20T07:24:47.828Z,23.07
2019-06-20T07:25:47.818Z,23.04
2019-06-20T07:26:47.825Z,23.04
2019-06-20T07:27:47.808Z,23.07
2019-06-20T07:28:51.336Z,22.93
2019-06-20T07:29:47.779Z,22.75
2019-06-20T07:30:47.763Z,22.80
2019-06-20T07:31:47.823Z,22.77
2019-06-20T07:32:47.742Z,23.17
2019-06-20T07:33:47.731Z,23.31
2019-06-20T07:34:47.728Z,23.68
2019-06-20T07:35:47.713Z,23.71
2019-06-20T07:36:47.710Z,23.34
2019-06-20T07:37:47.687Z,23.23
2019-06-20T07:38:47.680Z,23.04
2019-06-20T07:39:47.684Z,22.93
2019-06-20T07:40:47.706Z,22.86
2019-06-20T07:41:47.648Z,23.02
2019-06-20T07:42:47.642Z,23.57
2019-06-20T07:43:47.708Z,23.89
2019-06-20T07:44:47.657Z,23.35
2019-06-20T07:46:01.658Z,23.71
2019-06-20T07:46:47.601Z,23.97
2019-06-20T07:47:47.588Z,24.87
2019-06-20T07:48:47.579Z,25.13
2019-06-20T07:49:47.562Z,24.94
2019-06-20T07:50:47.558Z,25.00
2019-06-20T07:51:47.543Z,25.09
2019-06-20T07:53:01.539Z,25.42
2019-06-20T07:53:47.527Z,25.50
2019-06-20T07:54:47.520Z,25.91
2019-06-20T07:55:47.524Z,25.75
2019-06-20T07:56:47.498Z,25.50
2019-06-20T07:57:47.482Z,25.56
2019-06-20T07:58:47.475Z,25.54
2019-06-20T07:59:47.463Z,25.35
2019-06-20T08:00:47.470Z,25.68
2019-06-20T08:01:47.450Z,25.69
2019-06-20T08:02:47.437Z,25.68
2019-06-20T08:03:47.427Z,25.39
2019-06-20T08:04:47.426Z,25.00
2019-06-20T08:05:47.408Z,25.06
2019-06-20T08:06:47.408Z,25.19
2019-06-20T08:07:47.402Z,24.87
2019-06-20T08:08:47.390Z,24.37
2019-06-20T08:09:47.380Z,24.13
2019-06-20T08:10:47.563Z,23.83
2019-06-20T08:11:47.357Z,23.82
2019-06-20T08:12:47.352Z,24.02
2019-06-20T08:13:47.337Z,24.22
2019-06-20T08:14:47.333Z,24.23
2019-06-20T08:15:47.327Z,23.83
2019-06-20T08:16:47.315Z,23.82
2019-06-20T08:17:47.315Z,24.12
2019-06-20T08:18:47.300Z,23.82
2019-06-20T08:19:47.280Z,24.08
2019-06-20T08:20:47.274Z,24.22
2019-06-20T08:21:47.350Z,24.47
2019-06-20T08:22:47.254Z,24.45
2019-06-20T08:23:47.247Z,24.67
2019-06-20T08:24:47.242Z,24.63
2019-06-20T08:25:47.226Z,24.83
2019-06-20T08:26:47.233Z,25.20
2019-06-20T08:27:47.213Z,25.42
2019-06-20T08:28:47.197Z,25.31
2019-06-20T08:29:47.460Z,25.30
2019-06-20T08:30:47.187Z,25.47
2019-06-20T08:31:47.175Z,25.74
2019-06-20T08:32:47.169Z,25.93
2019-06-20T08:33:47.161Z,25.46
2019-06-20T08:34:47.169Z,25.39
2019-06-20T08:35:47.133Z,25.87
2019-06-20T08:36:47.123Z,25.84
2019-06-20T08:37:47.125Z,26.12
2019-06-20T08:38:47.114Z,25.87
2019-06-20T08:39:47.113Z,25.46
2019-06-20T08:40:47.107Z,25.02
2019-06-20T08:41:47.085Z,25.32
2019-06-20T08:42:47.076Z,25.59
2019-06-20T08:43:47.066Z,25.43
2019-06-20T08:44:47.059Z,25.86
2019-06-20T08:45:47.069Z,25.37
2019-06-20T08:46:47.041Z,25.91
2019-06-20T08:47:47.030Z,26.57
2019-06-20T08:48:47.022Z,26.77
2019-06-20T08:49:47.015Z,26.98
2019-06-20T08:50:47.009Z,27.53
2019-06-20T08:51:46.997Z,27.51
2019-06-20T08:52:46.997Z,27.51
2019-06-20T08:53:46.981Z,27.10
2019-06-20T08:54:46.971Z,27.32
2019-06-20T08:55:46.962Z,27.29
2019-06-20T08:56:46.957Z,27.62
2019-06-20T08:57:46.951Z,27.58
2019-06-20T08:58:46.946Z,27.58
2019-06-20T08:59:46.936Z,27.31
2019-06-20T09:00:46.931Z,27.85
2019-06-20T09:01:46.914Z,27.66
2019-06-20T09:02:46.944Z,27.67
2019-06-20T09:03:46.921Z,27.69
2019-06-20T09:04:46.901Z,27.04
2019-06-20T09:05:46.885Z,27.16
2019-06-20T09:06:49.999Z,27.62
2019-06-20T09:07:46.881Z,26.67
2019-06-20T09:08:46.860Z,26.77
2019-06-20T09:09:46.854Z,27.36
2019-06-20T09:10:46.846Z,27.70
2019-06-20T09:11:46.844Z,27.69
2019-06-20T09:12:46.829Z,28.09
2019-06-20T09:13:46.824Z,28.33
2019-06-20T09:14:46.805Z,28.54
2019-06-20T09:15:46.806Z,28.16
2019-06-20T09:16:46.789Z,27.29
2019-06-20T09:17:46.791Z,26.42
2019-06-20T09:18:46.778Z,26.57
2019-06-20T09:19:46.774Z,26.59
2019-06-20T09:20:46.767Z,26.20
2019-06-20T09:21:46.761Z,26.47
2019-06-20T09:22:46.752Z,27.06
2019-06-20T09:23:46.744Z,27.13
2019-06-20T09:24:46.741Z,27.74
2019-06-20T09:25:46.736Z,27.10
2019-06-20T09:26:46.723Z,26.40
2019-06-20T09:27:46.723Z,25.67
2019-06-20T09:28:46.714Z,25.53
2019-06-20T09:29:46.694Z,25.19
2019-06-20T09:30:46.688Z,25.74
2019-06-20T09:31:46.724Z,26.18
2019-06-20T09:32:46.675Z,26.05
2019-06-20T09:33:46.665Z,26.94
2019-06-20T09:34:46.665Z,26.76
2019-06-20T09:35:46.661Z,26.37
2019-06-20T09:36:46.643Z,26.06
2019-06-20T09:37:46.643Z,25.83
2019-06-20T09:38:46.631Z,25.49
2019-06-20T09:39:46.634Z,25.06
2019-06-20T09:40:46.622Z,24.83
2019-06-20T09:41:46.615Z,25.80
2019-06-20T09:42:46.608Z,26.21
2019-06-20T09:43:46.611Z,25.74
2019-06-20T09:44:46.595Z,25.32
2019-06-20T09:45:46.598Z,25.06
2019-06-20T09:46:46.576Z,25.00
2019-06-20T09:47:46.570Z,25.12
2019-06-20T09:48:46.561Z,25.09
2019-06-20T09:49:49.195Z,24.64
2019-06-20T09:50:49.388Z,24.22
2019-06-20T09:51:48.570Z,24.05
2019-06-20T09:52:49.761Z,23.80
2019-06-20T09:53:48.359Z,23.89
2019-06-20T09:54:48.455Z,25.15
2019-06-20T09:55:48.263Z,26.31
2019-06-20T09:56:48.481Z,26.64
2019-06-20T09:57:47.241Z,26.43
2019-06-20T09:58:46.898Z,25.98
2019-06-20T09:59:59.145Z,26.29
2019-06-20T10:00:47.609Z,26.62
2019-06-20T10:01:46.724Z,27.14
2019-06-20T10:02:48.496Z,27.13
2019-06-20T10:03:47.461Z,26.77
2019-06-20T10:04:47.868Z,26.49
2019-06-20T10:05:47.670Z,26.28
2019-06-20T10:06:47.397Z,27.23
2019-06-20T10:07:47.284Z,27.92
2019-06-20T10:08:47.083Z,28.22
2019-06-20T10:09:47.065Z,27.41
2019-06-20T10:10:47.091Z,27.58
2019-06-20T10:11:46.947Z,28.07
2019-06-20T10:12:47.866Z,28.58
2019-06-20T10:13:46.874Z,28.91
2019-06-20T10:14:46.906Z,29.08
2019-06-20T10:15:47.615Z,29.22
2019-06-20T10:16:50.067Z,29.16
2019-06-20T10:17:47.377Z,29.52
2019-06-20T10:18:48.159Z,29.89
2019-06-20T10:19:47.292Z,29.94
2019-06-20T10:20:47.247Z,29.22
2019-06-20T10:21:47.770Z,29.33
2019-06-20T10:22:47.344Z,29.41
2019-06-20T10:23:47.671Z,29.55
2019-06-20T10:24:47.371Z,29.33
2019-06-20T10:25:47.787Z,29.04
2019-06-20T10:26:46.671Z,28.81
2019-06-20T10:27:47.917Z,28.90
2019-06-20T10:28:47.579Z,28.80
2019-06-20T10:29:47.532Z,28.51
2019-06-20T10:30:46.526Z,28.54
2019-06-20T10:31:47.413Z,28.88
2019-06-20T10:32:46.754Z,28.68
2019-06-20T10:33:46.871Z,28.70
2019-06-20T10:34:46.695Z,28.19
2019-06-20T10:35:47.021Z,27.59
2019-06-20T10:36:46.515Z,27.43
2019-06-20T10:37:47.193Z,27.11
2019-06-20T10:38:46.525Z,26.86
2019-06-20T10:39:46.241Z,26.39
2019-06-20T10:40:46.443Z,26.17
2019-06-20T10:41:46.739Z,26.49
2019-06-20T10:42:46.233Z,26.64
2019-06-20T10:43:47.516Z,26.62
2019-06-20T10:44:46.221Z,26.37
2019-06-20T10:45:47.301Z,26.18
2019-06-20T10:46:47.307Z,25.94
2019-06-20T10:47:47.263Z,25.75
2019-06-20T10:48:46.207Z,25.67
2019-06-20T10:49:46.233Z,25.47
2019-06-20T10:50:46.196Z,25.46
2019-06-20T10:51:47.505Z,25.39
2019-06-20T10:52:47.863Z,25.32
2019-06-20T10:53:47.133Z,25.12
2019-06-20T10:54:47.056Z,25.00
2019-06-20T10:55:47.000Z,24.85
2019-06-20T10:56:47.169Z,24.83
2019-06-20T10:57:46.731Z,24.71
2019-06-20T10:58:46.400Z,24.60
2019-06-20T10:59:46.525Z,24.45
2019-06-20T11:00:46.189Z,24.49
2019-06-20T11:01:46.646Z,24.34
2019-06-20T11:02:47.042Z,24.31
2019-06-20T11:03:46.121Z,24.20
2019-06-20T11:04:46.102Z,24.07
2019-06-20T11:05:46.096Z,24.02
2019-06-20T11:06:47.514Z,23.92
2019-06-20T11:07:47.453Z,23.90
2019-06-20T11:08:47.190Z,23.86
2019-06-20T11:09:47.109Z,23.80
2019-06-20T11:10:47.209Z,23.65
2019-06-20T11:11:47.077Z,23.58
2019-06-20T11:12:53.037Z,23.46
2019-06-20T11:13:46.551Z,23.43
2019-06-20T11:14:46.229Z,23.35
2019-06-20T11:15:46.227Z,23.29
2019-06-20T11:16:47.144Z,23.20
2019-06-20T11:17:46.323Z,23.20
2019-06-20T11:18:46.368Z,23.23
2019-06-20T11:19:45.978Z,23.07
2019-06-20T11:20:46.636Z,23.09
2019-06-20T11:21:45.956Z,23.07
2019-06-20T11:22:45.949Z,23.05
2019-06-20T11:23:47.348Z,23.09
2019-06-20T11:24:45.927Z,23.05
2019-06-20T11:25:46.661Z,23.12
2019-06-20T11:26:46.061Z,23.05
2019-06-20T11:27:47.303Z,23.20
2019-06-20T11:28:45.886Z,23.15
2019-06-20T11:29:46.557Z,23.22
2019-06-20T11:30:56.001Z,23.24
2019-06-20T11:31:47.786Z,23.26
2019-06-20T11:32:45.868Z,23.08
2019-06-20T11:33:45.839Z,23.08
2019-06-20T11:34:45.818Z,23.04
2019-06-20T11:35:45.816Z,22.94
2019-06-20T11:36:46.804Z,22.75
2019-06-20T11:37:47.133Z,22.67
2019-06-20T11:38:46.853Z,22.52
2019-06-20T11:39:45.775Z,22.39
2019-06-20T11:40:45.763Z,22.32
2019-06-20T11:41:45.765Z,22.14
2019-06-20T11:42:46.993Z,21.97
2019-06-20T11:43:46.797Z,21.79
2019-06-20T11:44:45.713Z,21.75
2019-06-20T11:45:45.703Z,21.78
2019-06-20T11:46:47.090Z,21.74
2019-06-20T11:47:47.147Z,21.63
2019-06-20T11:48:47.051Z,21.75
2019-06-20T11:49:46.941Z,21.69
2019-06-20T11:50:46.523Z,21.74
2019-06-20T11:51:45.643Z,21.91
2019-06-20T11:52:45.956Z,22.09
2019-06-20T11:53:45.624Z,22.28
2019-06-20T11:54:45.606Z,22.69
2019-06-20T11:55:45.665Z,23.24
2019-06-20T11:56:45.586Z,23.61
2019-06-20T11:57:45.584Z,23.45
2019-06-20T11:58:45.564Z,23.40
2019-06-20T11:59:45.561Z,23.46
2019-06-20T12:00:58.657Z,23.70
2019-06-20T12:01:47.154Z,23.79
2019-06-20T12:02:46.140Z,23.95
2019-06-20T12:03:46.644Z,24.04
2019-06-20T12:04:45.516Z,24.17
2019-06-20T12:05:45.509Z,24.27
2019-06-20T12:06:47.039Z,24.49
2019-06-20T12:07:45.746Z,24.87
2019-06-20T12:08:46.773Z,24.98
2019-06-20T12:09:46.555Z,25.07
2019-06-20T12:10:45.468Z,25.25
2019-06-20T12:11:46.681Z,25.53
2019-06-20T12:12:46.779Z,25.53
2019-06-20T12:13:46.490Z,25.24
2019-06-20T12:14:46.769Z,24.87
2019-06-20T12:15:46.549Z,24.95
2019-06-20T12:16:46.436Z,25.44
2019-06-20T12:17:47.039Z,25.67
2019-06-20T12:18:45.421Z,26.27
2019-06-20T12:19:46.631Z,26.72
2019-06-20T12:20:46.741Z,27.02
2019-06-20T12:21:46.818Z,26.96
2019-06-20T12:22:46.520Z,27.17
2019-06-20T12:23:46.770Z,27.43
2019-06-20T12:24:46.611Z,27.62
2019-06-20T12:25:46.532Z,27.79
2019-06-20T12:26:46.736Z,27.94
2019-06-20T12:27:45.642Z,27.32
2019-06-20T12:28:46.581Z,27.47
2019-06-20T12:29:46.518Z,27.54
2019-06-20T12:30:45.618Z,27.51
2019-06-20T12:31:45.830Z,27.46
2019-06-20T12:32:46.713Z,27.32
2019-06-20T12:33:45.394Z,27.47
2019-06-20T12:34:46.533Z,27.19
2019-06-20T12:35:46.684Z,27.05
2019-06-20T12:36:46.522Z,27.13
2019-06-20T12:37:45.444Z,27.21
2019-06-20T12:38:46.289Z,27.43
2019-06-20T12:39:46.413Z,27.59
2019-06-20T12:40:46.156Z,27.71
2019-06-20T12:41:45.639Z,27.99
2019-06-20T12:42:46.648Z,28.03
2019-06-20T12:43:46.349Z,27.99
2019-06-20T12:44:46.001Z,27.84
2019-06-20T12:45:45.411Z,27.51
2019-06-20T12:46:45.460Z,27.23
2019-06-20T12:47:46.104Z,26.91
2019-06-20T12:48:45.400Z,26.57
2019-06-20T12:49:45.881Z,26.49
2019-06-20T12:50:45.403Z,26.29
2019-06-20T12:51:45.408Z,26.06
2019-06-20T12:52:45.927Z,25.97